createdAt,value
2018-11-02T00:00:18.816Z,100485.86
2018-11-02T00:02:47.804Z,100498.19
2018-11-02T00:05:22.053Z,100485.47
2018-11-02T00:08:08.452Z,100485.72
2018-11-02T00:10:50.499Z,100482.15
2018-11-02T00:13:17.589Z,100485.06
2018-11-02T00:15:44.696Z,100491.19
2018-11-02T00:18:11.816Z,100493.51
2018-11-02T00:20:38.936Z,100501.85
2018-11-02T00:23:06.024Z,100498.25
2018-11-02T00:25:33.216Z,100502.30
2018-11-02T00:28:01.109Z,100506.62
2018-11-02T00:30:31.175Z,100515.52
2018-11-02T00:32:58.382Z,100525.41
2018-11-02T00:35:25.451Z,100525.11
2018-11-02T00:37:52.815Z,100526.48
2018-11-02T00:40:19.904Z,100525.11
2018-11-02T00:42:47.110Z,100529.27
2018-11-02T00:45:14.199Z,100512.73
2018-11-02T00:47:42.278Z,100517.22
2018-11-02T00:50:10.973Z,100521.69
2018-11-02T00:52:38.142Z,100520.22
2018-11-02T00:55:06.384Z,100518.34
2018-11-02T00:57:33.564Z,100516.61
2018-11-02T01:00:00.673Z,100516.27
2018-11-02T01:02:27.755Z,100513.83
2018-11-02T01:04:54.908Z,100520.85
2018-11-02T01:07:22.120Z,100524.36
2018-11-02T01:09:49.279Z,100525.31
2018-11-02T01:12:16.375Z,100527.55
2018-11-02T01:14:43.496Z,100522.09
2018-11-02T01:17:17.724Z,100530.19
2018-11-02T01:19:44.804Z,100525.16
2018-11-02T01:22:11.871Z,100521.32
2018-11-02T01:24:39.375Z,100518.98
2018-11-02T01:27:06.458Z,100518.98
2018-11-02T01:29:33.608Z,100523.00
2018-11-02T01:32:00.904Z,100528.34
2018-11-02T01:34:27.988Z,100529.94
2018-11-02T01:36:55.100Z,100533.21
2018-11-02T01:39:22.339Z,100529.15
2018-11-02T01:41:49.707Z,100524.84
2018-11-02T01:44:16.944Z,100522.42
2018-11-02T01:46:44.109Z,100519.20
2018-11-02T01:49:11.489Z,100523.34
2018-11-02T01:51:38.567Z,100522.72
2018-11-02T01:54:05.681Z,100522.42
2018-11-02T01:56:32.904Z,100518.45
2018-11-02T01:59:00.072Z,100527.62
2018-11-02T02:01:27.254Z,100524.95
2018-11-02T02:03:54.768Z,100528.77
2018-11-02T02:06:21.899Z,100537.69
2018-11-02T02:08:49.065Z,100535.14
2018-11-02T02:11:16.202Z,100543.20
2018-11-02T02:13:43.379Z,100542.42
2018-11-02T02:16:10.457Z,100545.62
2018-11-02T02:18:38.046Z,100543.67
2018-11-02T02:21:05.185Z,100537.64
2018-11-02T02:23:32.264Z,100533.50
2018-11-02T02:25:59.378Z,100539.75
2018-11-02T02:28:26.489Z,100541.66
2018-11-02T02:30:53.584Z,100551.70
2018-11-02T02:33:20.678Z,100549.34
2018-11-02T02:35:47.839Z,100546.66
2018-11-02T02:38:14.911Z,100546.44
2018-11-02T02:40:42.122Z,100543.70
2018-11-02T02:43:09.191Z,100544.37
2018-11-02T02:45:36.369Z,100549.70
2018-11-02T02:48:03.484Z,100558.59
2018-11-02T02:50:30.592Z,100572.68
2018-11-02T02:52:57.772Z,100563.95
2018-11-02T02:55:24.932Z,100569.00
2018-11-02T02:57:52.004Z,100570.59
2018-11-02T03:00:19.202Z,100574.27
2018-11-02T03:02:46.301Z,100579.36
2018-11-02T03:05:13.427Z,100589.06
2018-11-02T03:07:41.112Z,100575.78
2018-11-02T03:10:08.501Z,100587.69
2018-11-02T03:12:35.652Z,100586.88
2018-11-02T03:15:03.556Z,100591.45
2018-11-02T03:17:30.683Z,100523.61
2018-11-02T03:19:57.874Z,100584.68
2018-11-02T03:22:25.019Z,100583.25
2018-11-02T03:24:52.083Z,100586.53
2018-11-02T03:27:19.168Z,100590.70
2018-11-02T03:29:46.332Z,100593.84
2018-11-02T03:32:13.432Z,100595.36
2018-11-02T03:34:40.548Z,100596.73
2018-11-02T03:37:07.672Z,100604.09
2018-11-02T03:39:34.763Z,100610.95
2018-11-02T03:42:01.962Z,100600.19
2018-11-02T03:44:29.043Z,100603.11
2018-11-02T03:46:56.139Z,100604.30
2018-11-02T03:49:24.947Z,100606.64
2018-11-02T03:51:52.022Z,100606.27
2018-11-02T03:54:19.089Z,100590.19
2018-11-02T03:56:46.287Z,100579.61
2018-11-02T03:59:13.296Z,100566.88
2018-11-02T04:01:40.389Z,100570.64
2018-11-02T04:04:08.880Z,100576.81
2018-11-02T04:06:36.025Z,100581.34
2018-11-02T04:09:04.412Z,100582.69
2018-11-02T04:11:31.516Z,100575.48
2018-11-02T04:13:58.991Z,100586.46
2018-11-02T04:16:26.071Z,100590.69
2018-11-02T04:18:53.169Z,100590.50
2018-11-02T04:21:20.492Z,100592.26
2018-11-02T04:23:47.657Z,100596.02
2018-11-02T04:26:14.840Z,100595.05
2018-11-02T04:28:41.935Z,100595.89
2018-11-02T04:31:09.304Z,100597.08
2018-11-02T04:33:36.284Z,100609.20
2018-11-02T04:36:03.465Z,100605.63
2018-11-02T04:38:30.563Z,100621.23
2018-11-02T04:40:57.722Z,100632.98
2018-11-02T04:43:25.401Z,100627.73
2018-11-02T04:45:52.592Z,100635.74
2018-11-02T04:48:19.751Z,100645.77
2018-11-02T04:50:47.525Z,100642.94
2018-11-02T04:53:14.685Z,100641.88
2018-11-02T04:55:41.771Z,100650.68
2018-11-02T04:58:08.956Z,100644.21
2018-11-02T05:00:36.162Z,100646.53
2018-11-02T05:03:04.196Z,100655.31
2018-11-02T05:05:31.328Z,100664.59
2018-11-02T05:07:58.399Z,100669.50
2018-11-02T05:10:25.480Z,100671.81
2018-11-02T05:12:52.603Z,100670.76
2018-11-02T05:15:19.699Z,100675.57
2018-11-02T05:17:46.862Z,100671.23
2018-11-02T05:20:13.979Z,100684.08
2018-11-02T05:22:41.149Z,100686.19
2018-11-02T05:25:09.519Z,100678.88
2018-11-02T05:27:38.231Z,100680.20
2018-11-02T05:30:09.559Z,100688.52
2018-11-02T05:32:36.655Z,100700.07
2018-11-02T05:35:03.894Z,100706.06
2018-11-02T05:37:31.088Z,100714.84
2018-11-02T05:39:58.281Z,100721.78
2018-11-02T05:42:25.444Z,100725.08
2018-11-02T05:44:52.529Z,100724.44
2018-11-02T05:47:19.740Z,100737.23
2018-11-02T05:49:47.159Z,100736.31
2018-11-02T05:52:14.240Z,100746.41
2018-11-02T05:54:41.403Z,100738.47
2018-11-02T05:57:10.046Z,100741.84
2018-11-02T05:59:37.157Z,100746.14
2018-11-02T06:02:04.361Z,100753.45
2018-11-02T06:04:31.445Z,100760.89
2018-11-02T06:06:58.528Z,100764.78
2018-11-02T06:09:25.706Z,100766.21
2018-11-02T06:11:52.798Z,100775.97
2018-11-02T06:14:20.011Z,100780.47
2018-11-02T06:16:47.245Z,100788.43
2018-11-02T06:19:14.344Z,100789.33
2018-11-02T06:21:41.843Z,100787.86
2018-11-02T06:24:09.047Z,100795.03
2018-11-02T06:26:36.150Z,100798.48
2018-11-02T06:29:03.404Z,100800.09
2018-11-02T06:31:30.605Z,100804.93
2018-11-02T06:33:57.675Z,100817.51
2018-11-02T06:36:24.772Z,100825.80
2018-11-02T06:38:51.946Z,100827.66
2018-11-02T06:41:19.112Z,100830.42
2018-11-02T06:43:46.497Z,100826.06
2018-11-02T06:46:13.573Z,100826.58
2018-11-02T06:48:41.008Z,100827.44
2018-11-02T06:51:08.353Z,100827.83
2018-11-02T06:53:35.340Z,100833.58
2018-11-02T06:56:02.464Z,100842.09
2018-11-02T06:58:29.657Z,100848.83
2018-11-02T07:00:56.883Z,100854.32
2018-11-02T07:03:24.291Z,100855.05
2018-11-02T07:05:51.641Z,100858.29
2018-11-02T07:08:19.046Z,100858.98
2018-11-02T07:10:46.416Z,100864.33
2018-11-02T07:13:13.531Z,100865.46
2018-11-02T07:15:40.651Z,100871.85
2018-11-02T07:18:07.762Z,100877.47
2018-11-02T07:20:34.856Z,100887.89
2018-11-02T07:23:01.951Z,100883.86
2018-11-02T07:25:30.541Z,100891.59
2018-11-02T07:27:57.705Z,100888.44
2018-11-02T07:30:24.800Z,100887.58
2018-11-02T07:32:51.892Z,100893.58
2018-11-02T07:35:19.024Z,100888.00
2018-11-02T07:37:46.099Z,100891.80
2018-11-02T07:40:13.173Z,100888.21
2018-11-02T07:42:40.395Z,100897.71
2018-11-02T07:45:08.217Z,100898.91
2018-11-02T07:47:35.593Z,100906.34
2018-11-02T07:50:02.960Z,100909.53
2018-11-02T07:52:30.522Z,100910.79
2018-11-02T07:54:57.697Z,100911.84
2018-11-02T07:57:25.084Z,100921.00
2018-11-02T07:59:52.339Z,100922.84
2018-11-02T08:02:19.623Z,100920.70
2018-11-02T08:04:46.761Z,100932.09
2018-11-02T08:07:13.862Z,100931.72
2018-11-02T08:09:40.943Z,100919.87
2018-11-02T08:12:08.124Z,100937.91
2018-11-02T08:14:35.308Z,100930.64
2018-11-02T08:17:02.410Z,100934.70
2018-11-02T08:19:32.955Z,100934.20
2018-11-02T08:22:00.056Z,100930.08
2018-11-02T08:24:27.175Z,100932.08
2018-11-02T08:26:54.317Z,100933.45
2018-11-02T08:29:21.508Z,100937.91
2018-11-02T08:31:49.110Z,100947.45
2018-11-02T08:34:16.176Z,100942.63
2018-11-02T08:36:43.436Z,100952.66
2018-11-02T08:39:11.748Z,100949.64
2018-11-02T08:41:38.920Z,100961.89
2018-11-02T08:44:06.721Z,100953.11
2018-11-02T08:46:33.957Z,100953.11
2018-11-02T08:49:00.980Z,100960.64
2018-11-02T08:51:28.503Z,100969.15
2018-11-02T08:53:55.592Z,100968.84
2018-11-02T08:56:22.759Z,100978.41
2018-11-02T08:58:50.194Z,100975.13
2018-11-02T09:01:17.053Z,100984.41
2018-11-02T09:03:44.126Z,100988.18
2018-11-02T09:06:11.206Z,100992.33
2018-11-02T09:08:38.379Z,100989.64
2018-11-02T09:11:12.397Z,101003.74
2018-11-02T09:13:39.523Z,101008.80
2018-11-02T09:16:06.611Z,101009.39
2018-11-02T09:18:33.846Z,101008.47
2018-11-02T09:21:01.038Z,101019.70
2018-11-02T09:23:29.387Z,101023.67
2018-11-02T09:25:56.737Z,101033.36
2018-11-02T09:28:23.876Z,101037.83
2018-11-02T09:30:51.036Z,101040.26
2018-11-02T09:33:18.217Z,101051.20
2018-11-02T09:35:45.296Z,101050.41
2018-11-02T09:38:12.379Z,101056.53
2018-11-02T09:40:39.592Z,101065.61
2018-11-02T09:43:07.620Z,101060.06
2018-11-02T09:45:34.808Z,101073.70
2018-11-02T09:48:01.897Z,101071.73
2018-11-02T09:50:29.073Z,101074.43
2018-11-02T09:52:56.375Z,101084.98
2018-11-02T09:55:23.445Z,101085.11
2018-11-02T09:57:50.815Z,101099.48
2018-11-02T10:00:17.767Z,101100.56
2018-11-02T10:02:45.175Z,101110.84
2018-11-02T10:05:12.780Z,101109.30
2018-11-02T10:07:40.495Z,101110.66
2018-11-02T10:10:09.055Z,101126.34
2018-11-02T10:12:36.256Z,101118.86
2018-11-02T10:15:03.631Z,101122.34
2018-11-02T10:17:30.856Z,101122.81
2018-11-02T10:19:58.219Z,101132.72
2018-11-02T10:22:25.296Z,101144.03
2018-11-02T10:24:52.421Z,101153.13
2018-11-02T10:27:19.531Z,101160.09
2018-11-02T10:29:46.689Z,101157.38
2018-11-02T10:32:13.784Z,101158.75
2018-11-02T10:34:40.946Z,101162.05
2018-11-02T10:37:08.052Z,101169.64
2018-11-02T10:39:35.558Z,101179.75
2018-11-02T10:42:05.308Z,101187.89
2018-11-02T10:44:34.958Z,101198.98
2018-11-02T10:47:03.687Z,101195.68
2018-11-02T10:49:30.854Z,101193.93
2018-11-02T10:51:58.123Z,101206.97
2018-11-02T10:54:25.214Z,101223.52
2018-11-02T10:56:52.491Z,101219.20
2018-11-02T10:59:19.619Z,101219.11
2018-11-02T11:02:53.763Z,101223.56
2018-11-02T11:05:22.943Z,101232.16
2018-11-02T11:07:50.763Z,101238.90
2018-11-02T11:10:19.030Z,101250.55
2018-11-02T11:12:47.146Z,101260.52
2018-11-02T11:15:15.101Z,101251.36
2018-11-02T11:17:42.860Z,101262.61
2018-11-02T11:20:13.811Z,101275.88
2018-11-02T11:22:43.700Z,101275.57
2018-11-02T11:25:14.930Z,101274.91
2018-11-02T11:27:42.206Z,101277.59
2018-11-02T11:30:14.633Z,101278.05
2018-11-02T11:32:41.745Z,101282.92
2018-11-02T11:35:11.842Z,101296.66
2018-11-02T11:37:39.704Z,101291.55
2018-11-02T11:40:10.195Z,101296.98
2018-11-02T11:42:37.655Z,101302.78
2018-11-02T11:45:06.641Z,101303.20
2018-11-02T11:47:33.872Z,101305.98
2018-11-02T11:50:01.171Z,101314.27
2018-11-02T11:52:28.316Z,101307.27
2018-11-02T11:54:55.520Z,101311.74
2018-11-02T11:57:22.720Z,101327.30
2018-11-02T11:59:49.919Z,101337.98
2018-11-02T12:02:17.260Z,101342.53
2018-11-02T12:04:44.362Z,101336.53
2018-11-02T12:07:11.520Z,101341.75
2018-11-02T12:09:38.647Z,101347.77
2018-11-02T12:12:05.767Z,101348.07
2018-11-02T12:14:32.930Z,101358.27
2018-11-02T12:17:00.455Z,101349.92
2018-11-02T12:19:27.530Z,101370.74
2018-11-02T12:21:54.799Z,101366.57
2018-11-02T12:24:21.905Z,101369.78
2018-11-02T12:26:49.056Z,101362.89
2018-11-02T12:29:16.204Z,101374.73
2018-11-02T12:31:43.275Z,101375.02
2018-11-02T12:34:10.424Z,101387.70
2018-11-02T12:36:37.819Z,101390.52
2018-11-02T12:39:06.560Z,101389.33
2018-11-02T12:41:33.747Z,101389.70
2018-11-02T12:44:00.990Z,101394.41
2018-11-02T12:46:28.038Z,101392.87
2018-11-02T12:48:56.289Z,101406.87
2018-11-02T12:51:23.238Z,101402.78
2018-11-02T12:53:50.322Z,101405.33
2018-11-02T12:56:18.130Z,101411.20
2018-11-02T12:58:45.320Z,101417.88
2018-11-02T13:01:12.507Z,101410.20
2018-11-02T13:03:39.779Z,101415.23
2018-11-02T13:06:06.968Z,101413.78
2018-11-02T13:08:34.047Z,101418.33
2018-11-02T13:11:01.205Z,101427.47
2018-11-02T13:13:28.583Z,101430.36
2018-11-02T13:15:55.807Z,101429.36
2018-11-02T13:18:22.824Z,101428.69
2018-11-02T13:20:50.220Z,101437.48
2018-11-02T13:23:17.373Z,101433.27
2018-11-02T13:25:45.053Z,101439.22
2018-11-02T13:28:12.088Z,101444.12
2018-11-02T13:30:39.246Z,101446.45
2018-11-02T13:33:06.239Z,101456.92
2018-11-02T13:35:34.236Z,101456.33
2018-11-02T13:38:01.406Z,101455.49
2018-11-02T13:40:28.483Z,101460.69
2018-11-02T13:42:55.571Z,101453.13
2018-11-02T13:45:22.763Z,101463.73
2018-11-02T13:47:50.397Z,101472.63
2018-11-02T13:50:17.669Z,101471.91
2018-11-02T13:52:44.876Z,101479.08
2018-11-02T13:55:12.834Z,101478.95
2018-11-02T13:57:41.547Z,101479.34
2018-11-02T14:00:11.759Z,101474.06
2018-11-02T14:02:39.369Z,101471.89
2018-11-02T14:05:12.826Z,101482.77
2018-11-02T14:07:40.048Z,101479.66
2018-11-02T14:10:09.865Z,101485.50
2018-11-02T14:12:37.078Z,101489.66
2018-11-02T14:15:08.155Z,101496.02
2018-11-02T14:17:35.255Z,101494.70
2018-11-02T14:20:02.632Z,101487.65
2018-11-02T14:22:30.015Z,101498.89
2018-11-02T14:24:57.276Z,101511.78
2018-11-02T14:27:24.441Z,101518.94
2018-11-02T14:29:52.667Z,101520.58
2018-11-02T14:32:19.780Z,101518.39
2018-11-02T14:34:46.851Z,101524.99
2018-11-02T14:37:14.027Z,101526.57
2018-11-02T14:39:41.583Z,101530.88
2018-11-02T14:42:08.756Z,101524.83
2018-11-02T14:44:36.073Z,101524.99
2018-11-02T14:47:03.550Z,101540.12
2018-11-02T14:49:30.690Z,101545.35
2018-11-02T14:51:57.856Z,101547.52
2018-11-02T14:54:25.027Z,101544.55
2018-11-02T14:56:52.103Z,101561.06
2018-11-02T14:59:19.207Z,101565.81
2018-11-02T15:01:46.368Z,101569.05
2018-11-02T15:04:13.451Z,101579.81
2018-11-02T15:06:40.529Z,101585.53
2018-11-02T15:09:12.021Z,101592.30
2018-11-02T15:11:39.455Z,101609.94
2018-11-02T15:14:07.863Z,101617.02
2018-11-02T15:16:35.905Z,101620.78
2018-11-02T15:19:03.364Z,101625.72
2018-11-02T15:21:30.640Z,101631.36
2018-11-02T15:23:57.855Z,101637.78
2018-11-02T15:26:24.974Z,101641.31
2018-11-02T15:28:52.394Z,101643.64
2018-11-02T15:31:20.229Z,101655.57
2018-11-02T15:33:47.309Z,101663.35
2018-11-02T15:36:14.470Z,101665.72
2018-11-02T15:38:41.555Z,101679.33
2018-11-02T15:41:08.961Z,101684.13
2018-11-02T15:43:36.219Z,101686.09
2018-11-02T15:46:03.317Z,101687.83
2018-11-02T15:48:31.113Z,101690.56
2018-11-02T15:50:58.288Z,101694.98
2018-11-02T15:53:25.419Z,101700.66
2018-11-02T15:55:52.461Z,101708.69
2018-11-02T15:58:19.614Z,101710.83
2018-11-02T16:00:47.026Z,101720.34
2018-11-02T16:03:13.971Z,101726.15
2018-11-02T16:05:41.132Z,101736.69
2018-11-02T16:08:08.539Z,101743.45
2018-11-02T16:10:35.693Z,101746.47
2018-11-02T16:13:02.827Z,101745.70
2018-11-02T16:15:29.900Z,101751.61
2018-11-02T16:17:57.079Z,101754.88
2018-11-02T16:20:24.232Z,101752.73
2018-11-02T16:22:51.827Z,101754.98
2018-11-02T16:25:19.088Z,101755.01
2018-11-02T16:27:46.183Z,101751.75
2018-11-02T16:30:13.834Z,101743.10
2018-11-02T16:32:40.887Z,101744.48
2018-11-02T16:35:10.433Z,101748.84
2018-11-02T16:37:38.558Z,101749.47
2018-11-02T16:40:12.277Z,101750.73
2018-11-02T16:42:39.876Z,101749.22
2018-11-02T16:45:10.490Z,101738.94
2018-11-02T16:47:38.155Z,101741.45
2018-11-02T16:50:08.625Z,101743.05
2018-11-02T16:52:35.975Z,101746.19
2018-11-02T16:55:03.330Z,101737.42
2018-11-02T16:57:30.458Z,101741.53
2018-11-02T16:59:57.715Z,101741.41
2018-11-02T17:02:24.790Z,101737.37
2018-11-02T17:04:52.277Z,101735.36
2018-11-02T17:07:19.922Z,101730.31
2018-11-02T17:09:47.053Z,101741.97
2018-11-02T17:12:14.682Z,101741.20
2018-11-02T17:14:41.768Z,101741.05
2018-11-02T17:17:08.987Z,101742.95
2018-11-02T17:19:36.111Z,101746.41
2018-11-02T17:22:03.992Z,101746.18
2018-11-02T17:24:31.072Z,101749.28
2018-11-02T17:26:58.203Z,101745.76
2018-11-02T17:29:25.395Z,101752.23
2018-11-02T17:31:52.488Z,101755.28
2018-11-02T17:34:19.681Z,101756.41
2018-11-02T17:36:46.852Z,101755.23
2018-11-02T17:39:13.952Z,101759.47
2018-11-02T17:41:41.284Z,101758.56
2018-11-02T17:47:08.896Z,101757.84
2018-11-02T17:49:36.264Z,101760.33
2018-11-02T17:52:04.900Z,101774.09
2018-11-02T17:54:33.509Z,101786.80
2018-11-02T17:57:00.698Z,101793.23
2018-11-02T17:59:28.199Z,101799.41
2018-11-02T18:01:55.407Z,101798.88
2018-11-02T18:04:22.915Z,101798.02
2018-11-02T18:06:50.048Z,101810.05
2018-11-02T18:09:17.162Z,101816.95
2018-11-02T18:11:44.476Z,101831.20
2018-11-02T18:14:11.593Z,101825.20
2018-11-02T18:16:38.962Z,101823.80
2018-11-02T18:19:06.236Z,101826.27
2018-11-02T18:21:33.327Z,101827.14
2018-11-02T18:24:00.709Z,101823.61
2018-11-02T18:26:27.989Z,101838.39
2018-11-02T18:28:57.196Z,101843.39
2018-11-02T18:31:24.487Z,101845.33
2018-11-02T18:33:51.710Z,101849.25
2018-11-02T18:36:19.248Z,101851.53
2018-11-02T18:38:49.316Z,101852.88
2018-11-02T18:41:16.651Z,101862.71
2018-11-02T18:43:43.970Z,101865.75
2018-11-02T18:46:11.069Z,101866.83
2018-11-02T18:48:38.504Z,101863.17
2018-11-02T18:51:06.252Z,101869.38
2018-11-02T18:53:34.272Z,101869.02
2018-11-02T18:56:01.666Z,101870.80
2018-11-02T18:58:28.923Z,101886.00
2018-11-02T19:00:56.408Z,101893.38
2018-11-02T19:03:24.593Z,101902.20
2018-11-02T19:05:52.698Z,101906.91
2018-11-02T19:08:19.995Z,101905.28
2018-11-02T19:10:47.311Z,101911.36
2018-11-02T19:13:14.589Z,101913.60
2018-11-02T19:15:42.892Z,101918.23
2018-11-02T19:18:11.526Z,101924.77
2018-11-02T19:20:38.719Z,101928.37
2018-11-02T19:23:06.107Z,101919.97
2018-11-02T19:25:33.298Z,101928.21
2018-11-02T19:28:00.499Z,101932.98
2018-11-02T19:30:28.793Z,101934.89
2018-11-02T19:32:55.919Z,101938.60
2018-11-02T19:35:23.254Z,101944.55
2018-11-02T19:37:50.825Z,101949.17
2018-11-02T19:40:17.864Z,101949.84
2018-11-02T19:42:46.555Z,101957.59
2018-11-02T19:45:13.948Z,101954.16
2018-11-02T19:47:47.743Z,101960.91
2018-11-02T19:50:16.953Z,101968.33
2018-11-02T19:52:44.122Z,101975.31
2018-11-02T19:55:12.056Z,101981.27
2018-11-02T19:57:40.254Z,101980.76
2018-11-02T20:00:10.468Z,101975.08
2018-11-02T20:02:39.156Z,101975.74
2018-11-02T20:05:10.088Z,101975.81
2018-11-02T20:07:40.470Z,101975.45
2018-11-02T20:10:08.380Z,101985.80
2018-11-02T20:12:35.544Z,101988.47
2018-11-02T20:15:03.058Z,101993.66
2018-11-02T20:17:30.251Z,101995.73
2018-11-02T20:19:57.612Z,102001.66
2018-11-02T20:22:25.085Z,102008.11
2018-11-02T20:24:52.411Z,102005.71
2018-11-02T20:27:19.485Z,102007.27
2018-11-02T20:29:46.575Z,102016.95
2018-11-02T20:32:13.903Z,102013.27
2018-11-02T20:34:40.959Z,102014.28
2018-11-02T20:37:08.132Z,102010.47
2018-11-02T20:39:42.361Z,102015.77
2018-11-02T20:42:09.378Z,102023.48
2018-11-02T20:44:36.589Z,102025.84
2018-11-02T20:47:03.700Z,102022.17
2018-11-02T20:49:31.000Z,102027.74
2018-11-02T20:51:59.231Z,102033.17
2018-11-02T20:54:26.448Z,102035.53
2018-11-02T20:56:53.859Z,102032.33
2018-11-02T20:59:21.205Z,102035.56
2018-11-02T21:01:48.621Z,102039.62
2018-11-02T21:04:15.696Z,102041.23
2018-11-02T21:06:42.783Z,102044.61
2018-11-02T21:09:12.392Z,102047.34
2018-11-02T21:11:39.327Z,102052.10
2018-11-02T21:14:13.490Z,102050.55
2018-11-02T21:16:40.488Z,102047.98
2018-11-02T21:19:07.920Z,102055.98
2018-11-02T21:21:35.072Z,102060.66
2018-11-02T21:24:02.170Z,102060.66
2018-11-02T21:26:29.291Z,102062.59
2018-11-02T21:28:57.218Z,102060.16
2018-11-02T21:31:25.367Z,102059.47
2018-11-02T21:33:52.471Z,102053.81
2018-11-02T21:36:19.820Z,102049.05
2018-11-02T21:38:47.178Z,102049.89
2018-11-02T21:41:14.186Z,102047.63
2018-11-02T21:43:41.383Z,102051.80
2018-11-02T21:46:08.734Z,102052.75
2018-11-02T21:48:36.415Z,102051.80
2018-11-02T21:51:05.447Z,102045.56
2018-11-02T21:53:32.945Z,102053.31
2018-11-02T21:56:00.917Z,102052.94
2018-11-02T21:58:28.050Z,102051.19
2018-11-02T22:00:55.188Z,102063.34
2018-11-02T22:03:22.761Z,102061.98
2018-11-02T22:05:50.824Z,102064.09
2018-11-02T22:08:17.932Z,102061.28
2018-11-02T22:10:45.565Z,102071.06
2018-11-02T22:13:12.664Z,102066.45
2018-11-02T22:15:39.831Z,102068.69
2018-11-02T22:18:06.920Z,102072.80
2018-11-02T22:20:34.019Z,102070.44
2018-11-02T22:23:01.116Z,102076.92
2018-11-02T22:25:28.283Z,102078.48
2018-11-02T22:27:55.453Z,102068.52
2018-11-02T22:30:22.596Z,102074.09
2018-11-02T22:32:49.699Z,102073.05
2018-11-02T22:35:16.787Z,102064.69
2018-11-02T22:37:44.800Z,102064.69
2018-11-02T22:40:13.379Z,102065.67
2018-11-02T22:42:41.801Z,102074.72
2018-11-02T22:45:10.444Z,102069.92
2018-11-02T22:47:37.540Z,102079.90
2018-11-02T22:50:06.086Z,102073.27
2018-11-02T22:52:33.168Z,102074.88
2018-11-02T22:55:00.311Z,102075.86
2018-11-02T22:57:27.599Z,102076.42
2018-11-02T22:59:54.695Z,102083.34
2018-11-02T23:02:22.007Z,102084.59
2018-11-02T23:04:49.137Z,102089.99
2018-11-02T23:07:16.293Z,102094.90
2018-11-02T23:09:43.445Z,102092.87
2018-11-02T23:12:10.680Z,102100.44
2018-11-02T23:14:37.772Z,102102.42
2018-11-02T23:17:05.018Z,102102.84
2018-11-02T23:19:32.262Z,102105.53
2018-11-02T23:21:59.284Z,102103.78
2018-11-02T23:24:26.461Z,102110.24
2018-11-02T23:26:53.783Z,102104.75
2018-11-02T23:29:21.680Z,102103.50
2018-11-02T23:31:48.832Z,102108.62
2018-11-02T23:34:15.911Z,102101.74
2018-11-02T23:36:43.210Z,102102.48
2018-11-02T23:39:11.032Z,102095.61
2018-11-02T23:41:38.451Z,102096.53
2018-11-02T23:44:05.745Z,102095.56
2018-11-02T23:46:33.389Z,102092.92
2018-11-02T23:49:00.621Z,102097.04
2018-11-02T23:51:28.668Z,102090.81
2018-11-02T23:53:55.771Z,102094.77
2018-11-02T23:56:22.975Z,102094.53
2018-11-02T23:58:50.109Z,102089.09
